Time;durP1;ratioP1;P1;durP2;ratioP2;P2;SDS_P1;SDS_P2;PMS_P1;PMS_P2;Temp;Humidity;BMP_temperature;BMP_pressure;BME280_temperature;BME280_humidity;BME280_pressure;Samples;Min_cycle;Max_cycle;Signal;HPM_P1;HPM_P2
2022/06/13 00:02:06;;;;;;;3.67;3.27;;;;;;;;;;5055389;28;20500;-42
2022/06/13 00:04:32;;;;;;;4.17;3.47;;;;;;;;;;5053976;28;20182;-43
2022/06/13 00:06:59;;;;;;;6.17;3.40;;;;;;;;;;5053402;28;20681;-43
2022/06/13 00:09:25;;;;;;;3.73;3.30;;;;;;;;;;5050103;28;20183;-43
2022/06/13 00:11:51;;;;;;;4.47;3.13;;;;;;;;;;5050070;28;20603;-43
2022/06/13 00:14:17;;;;;;;5.93;3.10;;;;;;;;;;5046880;28;20194;-42
2022/06/13 00:16:43;;;;;;;4.10;3.70;;;;;;;;;;5046942;28;20178;-43
2022/06/13 00:19:09;;;;;;;6.27;2.80;;;;;;;;;;5045362;28;20175;-42
2022/06/13 00:21:36;;;;;;;7.50;3.10;;;;;;;;;;5049653;28;20179;-43
2022/06/13 00:24:04;;;;;;;3.67;3.13;;;;;;;;;;5046776;28;20175;-43
2022/06/13 00:26:31;;;;;;;3.20;2.90;;;;;;;;;;5044851;28;20876;-42
2022/06/13 00:28:58;;;;;;;5.90;3.00;;;;;;;;;;5042361;28;20175;-43
2022/06/13 00:31:24;;;;;;;7.77;3.20;;;;;;;;;;5052102;28;20178;-43
2022/06/13 00:33:50;;;;;;;5.80;3.37;;;;;;;;;;5040960;28;20203;-44
2022/06/13 00:36:17;;;;;;;3.77;3.33;;;;;;;;;;5041697;28;20215;-43
2022/06/13 00:38:44;;;;;;;4.60;3.77;;;;;;;;;;5049411;28;21274;-43
2022/06/13 00:41:11;;;;;;;3.70;3.10;;;;;;;;;;5052297;28;20821;-45
2022/06/13 00:43:38;;;;;;;5.37;3.30;;;;;;;;;;5047998;28;20470;-43
2022/06/13 00:46:15;;;;;;;4.13;3.40;;;;;;;;;;5052330;28;20191;-44
2022/06/13 00:48:42;;;;;;;4.93;2.80;;;;;;;;;;5057549;28;20206;-43
2022/06/13 00:51:09;;;;;;;3.40;3.00;;;;;;;;;;5055346;28;20178;-43
2022/06/13 00:53:36;;;;;;;3.10;2.80;;;;;;;;;;5055630;28;20995;-43
2022/06/13 00:56:05;;;;;;;4.17;2.80;;;;;;;;;;5056620;28;20889;-44
2022/06/13 00:58:35;;;;;;;5.73;3.10;;;;;;;;;;5052022;28;21238;-41
2022/06/13 01:01:01;;;;;;;3.53;3.20;;;;;;;;;;5052569;28;20175;-43
2022/06/13 01:03:29;;;;;;;4.03;3.40;;;;;;;;;;5056239;28;20327;-43
2022/06/13 01:05:57;;;;;;;3.13;2.83;;;;;;;;;;5053003;28;20507;-42
2022/06/13 01:08:24;;;;;;;4.97;2.97;;;;;;;;;;5054503;28;20767;-43
2022/06/13 01:13:43;;;;;;;4.80;3.17;;;;;;;;;;5053549;28;21160;-43
2022/06/13 01:16:14;;;;;;;5.03;3.10;;;;;;;;;;5057875;28;20223;-43
2022/06/13 01:18:43;;;;;;;6.23;3.50;;;;;;;;;;5058958;28;20228;-43
2022/06/13 01:21:23;;;;;;;4.27;3.03;;;;;;;;;;5053142;28;20601;-43
2022/06/13 01:24:02;;;;;;;6.47;3.37;;;;;;;;;;5052476;28;20182;-43
2022/06/13 01:26:48;;;;;;;4.07;3.03;;;;;;;;;;5057341;28;20193;-43
2022/06/13 01:29:32;;;;;;;4.23;3.00;;;;;;;;;;5030905;28;20202;-43
2022/06/13 01:32:17;;;;;;;3.17;2.80;;;;;;;;;;5057123;28;20337;-43
2022/06/13 01:34:46;;;;;;;3.23;2.90;;;;;;;;;;5051026;28;20249;-43
2022/06/13 01:37:24;;;;;;;3.33;2.80;;;;;;;;;;5053234;28;20784;-43
2022/06/13 01:40:10;;;;;;;2.53;2.33;;;;;;;;;;5057534;28;20511;-43
2022/06/13 01:42:43;;;;;;;4.47;2.60;;;;;;;;;;5057567;28;20207;-42
2022/06/13 01:45:15;;;;;;;3.40;2.50;;;;;;;;;;5055380;28;20633;-43
2022/06/13 01:47:41;;;;;;;6.00;2.33;;;;;;;;;;5051086;28;20704;-43
2022/06/13 01:50:26;;;;;;;4.20;2.30;;;;;;;;;;5055993;28;20182;-43
2022/06/13 01:53:02;;;;;;;3.03;2.77;;;;;;;;;;5055965;28;20198;-43
2022/06/13 01:55:49;;;;;;;2.60;2.40;;;;;;;;;;5054805;28;20279;-43
2022/06/13 01:58:18;;;;;;;3.60;2.10;;;;;;;;;;5053209;28;20182;-43
2022/06/13 02:00:48;;;;;;;2.53;2.33;;;;;;;;;;5051773;28;20221;-43
2022/06/13 02:03:17;;;;;;;3.97;2.67;;;;;;;;;;5051678;28;20181;-43
2022/06/13 02:06:16;;;;;;;3.70;2.60;;;;;;;;;;5056684;28;20488;-43
2022/06/13 02:08:45;;;;;;;4.13;2.13;;;;;;;;;;5021311;28;20637;-43
2022/06/13 02:11:14;;;;;;;5.87;2.60;;;;;;;;;;5054222;28;20271;-44
2022/06/13 02:13:43;;;;;;;4.70;2.20;;;;;;;;;;5049451;28;20252;-43
2022/06/13 02:16:16;;;;;;;3.47;2.30;;;;;;;;;;5045012;28;20946;-43
2022/06/13 02:18:49;;;;;;;3.07;2.40;;;;;;;;;;5046196;28;20179;-43
2022/06/13 02:21:15;;;;;;;5.07;2.50;;;;;;;;;;5046293;28;20189;-43
2022/06/13 02:23:45;;;;;;;2.53;2.20;;;;;;;;;;5050076;28;20610;-42
2022/06/13 02:26:14;;;;;;;3.50;2.20;;;;;;;;;;5043156;28;21116;-43
2022/06/13 02:28:52;;;;;;;3.80;2.37;;;;;;;;;;5049527;28;20872;-43
2022/06/13 02:31:33;;;;;;;4.17;2.23;;;;;;;;;;5048478;28;20834;-43
2022/06/13 02:33:59;;;;;;;2.60;2.03;;;;;;;;;;5042915;28;20914;-43
2022/06/13 02:36:28;;;;;;;2.30;1.83;;;;;;;;;;5049516;28;20244;-43
2022/06/13 02:38:57;;;;;;;4.13;2.37;;;;;;;;;;5045825;28;20186;-43
2022/06/13 02:41:25;;;;;;;2.67;2.20;;;;;;;;;;5047572;28;20573;-43
2022/06/13 02:43:55;;;;;;;4.77;2.30;;;;;;;;;;5053505;28;20513;-43
2022/06/13 02:46:43;;;;;;;3.00;2.10;;;;;;;;;;5049708;28;20615;-43
2022/06/13 02:49:18;;;;;;;3.47;2.37;;;;;;;;;;5053273;28;20248;-43
2022/06/13 02:51:47;;;;;;;2.10;1.90;;;;;;;;;;5051652;28;20902;-43
2022/06/13 02:54:22;;;;;;;2.93;2.00;;;;;;;;;;5051253;28;20298;-43
2022/06/13 02:59:42;;;;;;;5.73;2.10;;;;;;;;;;5049442;28;20183;-43
2022/06/13 03:02:09;;;;;;;2.47;2.20;;;;;;;;;;5047763;28;20547;-43
2022/06/13 03:04:41;;;;;;;2.50;2.27;;;;;;;;;;5051165;28;20650;-43
2022/06/13 03:07:19;;;;;;;2.50;2.10;;;;;;;;;;5051357;28;20202;-43
2022/06/13 03:09:54;;;;;;;5.20;2.20;;;;;;;;;;5050612;28;20182;-43
2022/06/13 03:12:27;;;;;;;3.30;2.30;;;;;;;;;;5053365;28;20842;-43
2022/06/13 03:14:57;;;;;;;4.53;2.20;;;;;;;;;;5045378;28;20271;-43
2022/06/13 03:17:27;;;;;;;4.37;2.30;;;;;;;;;;5046395;28;20261;-43
2022/06/13 03:19:56;;;;;;;3.20;2.17;;;;;;;;;;5055501;28;20214;-43
2022/06/13 03:22:26;;;;;;;4.50;1.90;;;;;;;;;;5050311;28;20198;-43
2022/06/13 03:24:55;;;;;;;4.07;2.07;;;;;;;;;;5051867;28;20704;-43
2022/06/13 03:27:27;;;;;;;3.50;2.00;;;;;;;;;;5052381;28;20341;-44
2022/06/13 03:29:57;;;;;;;2.57;1.80;;;;;;;;;;5048251;28;20181;-42
2022/06/13 03:32:26;;;;;;;2.77;2.00;;;;;;;;;;5048408;28;20673;-43
2022/06/13 03:34:54;;;;;;;4.90;2.10;;;;;;;;;;5048742;28;20244;-43
2022/06/13 03:37:22;;;;;;;2.70;2.10;;;;;;;;;;5052830;28;20206;-43
2022/06/13 03:39:54;;;;;;;2.47;2.20;;;;;;;;;;5048349;28;20194;-43
2022/06/13 03:42:28;;;;;;;2.47;2.03;;;;;;;;;;5048375;28;20628;-43
2022/06/13 03:45:00;;;;;;;3.10;2.20;;;;;;;;;;5054972;28;20368;-43
2022/06/13 03:47:26;;;;;;;2.87;2.00;;;;;;;;;;5050864;28;20300;-43
2022/06/13 03:49:59;;;;;;;3.33;2.10;;;;;;;;;;5053878;28;20210;-44
2022/06/13 03:52:26;;;;;;;1.90;1.80;;;;;;;;;;5053985;28;20630;-43
2022/06/13 03:54:55;;;;;;;2.63;1.70;;;;;;;;;;5055951;28;20518;-43
2022/06/13 03:57:25;;;;;;;2.20;1.90;;;;;;;;;;5050601;28;20852;-43
2022/06/13 03:59:51;;;;;;;5.23;2.00;;;;;;;;;;5052032;28;20183;-43
2022/06/13 04:02:19;;;;;;;2.53;2.00;;;;;;;;;;5049772;28;20208;-43
2022/06/13 04:04:46;;;;;;;4.10;2.60;;;;;;;;;;5050271;28;20233;-43
2022/06/13 04:07:12;;;;;;;10.13;2.93;;;;;;;;;;5048905;28;20278;-43
2022/06/13 04:09:45;;;;;;;3.73;2.30;;;;;;;;;;5049941;28;20175;-43
2022/06/13 04:12:17;;;;;;;5.87;2.30;;;;;;;;;;5052406;28;20209;-43
2022/06/13 04:14:46;;;;;;;5.13;2.63;;;;;;;;;;5057083;28;20190;-43
2022/06/13 04:17:36;;;;;;;7.97;3.30;;;;;;;;;;5053096;28;20708;-43
2022/06/13 04:20:07;;;;;;;6.63;3.47;;;;;;;;;;5047661;28;21095;-43
2022/06/13 04:22:40;;;;;;;8.23;3.50;;;;;;;;;;5051607;28;20521;-42
2022/06/13 04:25:13;;;;;;;9.80;4.50;;;;;;;;;;5057385;28;20958;-43
2022/06/13 04:27:50;;;;;;;9.93;3.93;;;;;;;;;;5051044;28;21014;-43
2022/06/13 04:30:19;;;;;;;6.00;4.03;;;;;;;;;;5050927;28;20553;-43
2022/06/13 04:32:51;;;;;;;6.10;3.90;;;;;;;;;;5055814;28;20202;-42
2022/06/13 04:35:18;;;;;;;7.93;4.40;;;;;;;;;;5055590;28;20183;-43
2022/06/13 04:37:45;;;;;;;5.73;3.50;;;;;;;;;;5056457;28;20449;-43
2022/06/13 04:40:14;;;;;;;6.87;3.83;;;;;;;;;;5051301;28;21087;-43
2022/06/13 04:42:41;;;;;;;8.43;3.90;;;;;;;;;;5051447;28;20190;-43
2022/06/13 04:45:14;;;;;;;4.27;3.30;;;;;;;;;;5056958;28;20245;-43
2022/06/13 04:47:40;;;;;;;6.30;3.73;;;;;;;;;;5055548;28;20179;-42
2022/06/13 04:50:07;;;;;;;8.10;4.00;;;;;;;;;;5053468;28;20740;-43
2022/06/13 04:52:34;;;;;;;8.47;3.60;;;;;;;;;;5055719;28;20198;-43
2022/06/13 04:55:04;;;;;;;8.17;4.27;;;;;;;;;;5052352;28;20560;-41
2022/06/13 04:57:30;;;;;;;7.33;4.17;;;;;;;;;;5044826;28;20629;-43
2022/06/13 04:59:56;;;;;;;9.77;5.10;;;;;;;;;;5052952;28;20597;-43
2022/06/13 05:02:26;;;;;;;9.50;4.80;;;;;;;;;;5050020;28;20706;-43
2022/06/13 05:04:52;;;;;;;9.30;5.87;;;;;;;;;;5050115;28;20714;-43
2022/06/13 05:07:20;;;;;;;11.47;7.43;;;;;;;;;;5048622;28;20189;-43
2022/06/13 05:09:49;;;;;;;9.73;7.40;;;;;;;;;;5053696;28;20252;-43
2022/06/13 05:12:15;;;;;;;8.83;8.03;;;;;;;;;;5052817;28;20610;-43
2022/06/13 05:14:48;;;;;;;9.97;7.70;;;;;;;;;;5051891;28;20704;-42
2022/06/13 05:17:33;;;;;;;9.93;8.27;;;;;;;;;;5048506;28;21162;-43
2022/06/13 05:20:17;;;;;;;8.87;7.50;;;;;;;;;;5046159;28;20578;-42
2022/06/13 05:23:02;;;;;;;11.67;8.30;;;;;;;;;;5047116;28;20269;-43
2022/06/13 05:25:45;;;;;;;10.70;8.70;;;;;;;;;;5047018;28;20985;-43
2022/06/13 05:28:12;;;;;;;12.93;8.67;;;;;;;;;;5042878;28;20585;-43
2022/06/13 05:30:43;;;;;;;10.00;8.97;;;;;;;;;;5042295;28;21836;-43
2022/06/13 05:33:13;;;;;;;11.97;8.10;;;;;;;;;;5053954;28;20601;-42
2022/06/13 05:35:43;;;;;;;9.67;8.23;;;;;;;;;;5044880;28;20179;-43
2022/06/13 05:38:12;;;;;;;9.90;7.87;;;;;;;;;;5041325;28;20629;-43
2022/06/13 05:40:38;;;;;;;7.50;6.80;;;;;;;;;;5058728;28;20175;-43
2022/06/13 05:43:04;;;;;;;9.30;6.73;;;;;;;;;;5055166;28;20174;-43
2022/06/13 05:45:30;;;;;;;7.90;7.10;;;;;;;;;;5058221;28;20713;-43
2022/06/13 05:47:56;;;;;;;5.67;5.03;;;;;;;;;;5055944;28;20703;-43
2022/06/13 05:50:27;;;;;;;8.43;6.17;;;;;;;;;;5050012;28;20292;-43
2022/06/13 05:52:53;;;;;;;7.17;5.77;;;;;;;;;;5052438;28;20191;-43
2022/06/13 05:55:20;;;;;;;9.37;5.33;;;;;;;;;;5050114;28;20236;-43
2022/06/13 05:57:46;;;;;;;6.53;5.40;;;;;;;;;;5041041;28;20167;-42
2022/06/13 06:00:26;;;;;;;8.13;5.60;;;;;;;;;;5045882;28;20802;-43
2022/06/13 06:02:52;;;;;;;7.67;5.30;;;;;;;;;;5047041;28;20171;-43
2022/06/13 06:05:18;;;;;;;6.57;5.80;;;;;;;;;;5048413;28;20166;-43
2022/06/13 06:07:44;;;;;;;6.33;5.60;;;;;;;;;;5044639;28;21048;-43
2022/06/13 06:10:21;;;;;;;8.13;6.30;;;;;;;;;;5041943;28;20202;-43
2022/06/13 06:12:47;;;;;;;8.63;7.00;;;;;;;;;;5037354;28;20217;-44
2022/06/13 06:15:13;;;;;;;7.93;6.70;;;;;;;;;;5034852;28;20291;-43
2022/06/13 06:17:40;;;;;;;8.27;6.07;;;;;;;;;;5042034;28;20175;-44
2022/06/13 06:20:06;;;;;;;8.63;6.13;;;;;;;;;;5032156;28;21274;-43
2022/06/13 06:22:32;;;;;;;9.37;5.37;;;;;;;;;;5036313;28;20221;-42
2022/06/13 06:24:58;;;;;;;6.60;5.60;;;;;;;;;;5034522;28;23001;-44
2022/06/13 06:27:24;;;;;;;8.00;5.10;;;;;;;;;;5029681;28;20295;-44
2022/06/13 06:29:50;;;;;;;6.23;4.33;;;;;;;;;;5026913;28;20655;-44
2022/06/13 06:32:16;;;;;;;8.50;4.63;;;;;;;;;;5031318;28;20912;-43
2022/06/13 06:34:43;;;;;;;7.07;4.80;;;;;;;;;;5033110;28;20239;-43
2022/06/13 06:37:10;;;;;;;14.37;5.07;;;;;;;;;;5037590;28;20178;-44
2022/06/13 06:39:36;;;;;;;7.67;4.80;;;;;;;;;;5038324;28;20341;-44
2022/06/13 06:42:02;;;;;;;9.20;4.60;;;;;;;;;;5036677;28;20255;-44
2022/06/13 06:44:28;;;;;;;7.20;4.53;;;;;;;;;;5032286;28;20823;-44
2022/06/13 06:46:54;;;;;;;9.73;4.60;;;;;;;;;;5036024;28;20184;-44
2022/06/13 06:49:20;;;;;;;6.30;4.57;;;;;;;;;;5046596;28;20995;-44
2022/06/13 06:51:46;;;;;;;8.67;3.97;;;;;;;;;;5045092;28;21717;-44
2022/06/13 06:59:55;;;;;;;8.03;4.13;;;;;;;;;;5047624;28;20777;-44
2022/06/13 07:02:23;;;;;;;6.20;3.70;;;;;;;;;;5053130;28;20240;-44
2022/06/13 07:04:51;;;;;;;9.63;4.40;;;;;;;;;;5050721;28;20623;-44
2022/06/13 07:07:17;;;;;;;15.10;4.70;;;;;;;;;;5048964;28;20214;-44
2022/06/13 07:09:43;;;;;;;7.13;4.23;;;;;;;;;;5050155;28;20179;-44
2022/06/13 07:12:09;;;;;;;12.30;4.30;;;;;;;;;;5055192;28;20175;-44
2022/06/13 07:14:35;;;;;;;7.43;3.93;;;;;;;;;;5055882;28;20273;-44
2022/06/13 07:17:03;;;;;;;10.33;4.77;;;;;;;;;;5050637;28;20203;-44
2022/06/13 07:19:29;;;;;;;11.17;4.43;;;;;;;;;;5049933;28;20746;-43
2022/06/13 07:21:56;;;;;;;10.10;4.63;;;;;;;;;;5055427;28;20249;-44
2022/06/13 07:24:22;;;;;;;10.73;4.23;;;;;;;;;;5051471;28;20186;-44
2022/06/13 07:26:49;;;;;;;12.60;4.50;;;;;;;;;;5048580;28;20607;-43
2022/06/13 07:29:19;;;;;;;10.90;4.50;;;;;;;;;;5049990;28;20496;-44
2022/06/13 07:31:45;;;;;;;11.03;4.60;;;;;;;;;;5050025;28;20186;-42
2022/06/13 07:34:21;;;;;;;17.10;5.17;;;;;;;;;;5050854;28;20714;-44
2022/06/13 07:36:48;;;;;;;10.40;5.20;;;;;;;;;;5052076;28;20175;-44
2022/06/13 07:39:14;;;;;;;12.03;5.07;;;;;;;;;;5051921;28;20213;-44
2022/06/13 07:41:41;;;;;;;13.67;4.97;;;;;;;;;;5048792;28;20885;-44
2022/06/13 07:44:07;;;;;;;8.83;4.90;;;;;;;;;;5053343;28;20193;-44
2022/06/13 07:46:34;;;;;;;10.00;5.33;;;;;;;;;;5051694;28;20617;-44
2022/06/13 07:49:00;;;;;;;14.40;8.87;;;;;;;;;;5056317;28;20186;-44
2022/06/13 07:51:27;;;;;;;11.50;8.23;;;;;;;;;;5053917;28;20270;-43
2022/06/13 07:53:53;;;;;;;13.93;8.63;;;;;;;;;;5057353;28;20210;-44
2022/06/13 07:56:21;;;;;;;11.03;8.30;;;;;;;;;;5052496;28;20174;-44
2022/06/13 07:58:49;;;;;;;9.00;7.93;;;;;;;;;;5051364;28;21033;-43
2022/06/13 08:01:16;;;;;;;10.63;8.27;;;;;;;;;;5051368;28;20636;-44
2022/06/13 08:03:42;;;;;;;12.73;8.80;;;;;;;;;;5055510;28;20721;-43
2022/06/13 08:06:08;;;;;;;11.03;7.70;;;;;;;;;;5050959;28;20176;-44
2022/06/13 08:08:35;;;;;;;10.17;8.47;;;;;;;;;;5051627;28;20186;-44
2022/06/13 08:11:03;;;;;;;14.73;8.13;;;;;;;;;;5050657;28;20179;-43
2022/06/13 08:13:30;;;;;;;13.40;7.90;;;;;;;;;;5057828;28;20207;-44
2022/06/13 08:15:56;;;;;;;12.00;7.20;;;;;;;;;;5052829;28;20206;-43
2022/06/13 08:18:23;;;;;;;10.43;6.70;;;;;;;;;;5053162;28;20179;-43
2022/06/13 08:20:49;;;;;;;10.37;6.90;;;;;;;;;;5052949;28;20386;-44
2022/06/13 08:23:16;;;;;;;13.93;7.33;;;;;;;;;;5053144;28;20539;-44
2022/06/13 08:25:42;;;;;;;9.50;6.40;;;;;;;;;;5056365;28;20183;-44
2022/06/13 08:28:09;;;;;;;11.57;5.90;;;;;;;;;;5052318;28;20285;-44
2022/06/13 08:30:40;;;;;;;9.23;6.40;;;;;;;;;;5053908;28;20511;-44
2022/06/13 08:33:06;;;;;;;6.77;5.33;;;;;;;;;;5055204;28;20627;-43
2022/06/13 08:35:33;;;;;;;6.20;4.97;;;;;;;;;;5054987;28;20620;-43
2022/06/13 08:37:59;;;;;;;7.60;5.00;;;;;;;;;;5053108;28;20883;-43
2022/06/13 08:40:31;;;;;;;8.83;5.10;;;;;;;;;;5051328;28;20917;-44
2022/06/13 08:43:28;;;;;;;7.70;4.93;;;;;;;;;;5055359;28;20241;-43
2022/06/13 08:46:00;;;;;;;6.00;4.40;;;;;;;;;;5051339;28;20828;-43
2022/06/13 08:48:35;;;;;;;9.17;5.07;;;;;;;;;;5050692;28;20610;-44
2022/06/13 08:51:06;;;;;;;6.23;5.17;;;;;;;;;;5055185;28;20186;-43
2022/06/13 08:53:50;;;;;;;9.23;5.93;;;;;;;;;;5055923;28;20725;-43
2022/06/13 08:56:19;;;;;;;10.17;5.83;;;;;;;;;;5051293;28;20172;-43
2022/06/13 08:58:45;;;;;;;13.53;6.00;;;;;;;;;;5053196;28;20615;-43
2022/06/13 09:01:34;;;;;;;8.33;5.03;;;;;;;;;;5050169;28;20292;-42
2022/06/13 09:04:00;;;;;;;8.30;5.60;;;;;;;;;;5053243;28;20188;-43
2022/06/13 09:06:35;;;;;;;8.93;5.60;;;;;;;;;;5054472;28;20240;-43
2022/06/13 09:09:15;;;;;;;13.20;5.23;;;;;;;;;;5056698;28;21084;-44
2022/06/13 09:12:07;;;;;;;9.27;5.40;;;;;;;;;;5053062;28;20752;-44
2022/06/13 09:14:33;;;;;;;7.93;5.60;;;;;;;;;;5050896;28;20194;-44
2022/06/13 09:17:13;;;;;;;8.10;5.00;;;;;;;;;;5059221;28;20172;-43
2022/06/13 09:19:58;;;;;;;9.17;5.13;;;;;;;;;;5052722;28;20219;-44
2022/06/13 09:22:41;;;;;;;9.40;5.57;;;;;;;;;;5055571;28;20590;-43
2022/06/13 09:25:10;;;;;;;8.00;5.20;;;;;;;;;;5057959;28;20210;-44
2022/06/13 09:27:47;;;;;;;7.87;4.43;;;;;;;;;;5057336;28;20179;-43
2022/06/13 09:30:21;;;;;;;7.40;4.33;;;;;;;;;;5050400;28;20531;-43
2022/06/13 09:32:51;;;;;;;9.17;5.37;;;;;;;;;;5057841;28;20918;-43
2022/06/13 09:35:20;;;;;;;7.40;4.80;;;;;;;;;;5054066;28;20598;-43
2022/06/13 09:37:48;;;;;;;5.33;3.93;;;;;;;;;;5054719;28;20282;-43
2022/06/13 09:40:16;;;;;;;7.30;4.50;;;;;;;;;;5056500;28;20594;-44
2022/06/13 09:42:49;;;;;;;5.67;4.13;;;;;;;;;;5053844;28;20183;-44
2022/06/13 09:45:23;;;;;;;9.40;4.67;;;;;;;;;;5054417;28;20182;-44
2022/06/13 09:47:58;;;;;;;7.17;4.37;;;;;;;;;;5058056;28;20171;-43
2022/06/13 09:50:43;;;;;;;9.20;4.50;;;;;;;;;;5054038;28;20190;-43
2022/06/13 09:53:28;;;;;;;7.70;4.53;;;;;;;;;;5053813;28;20560;-43
2022/06/13 09:55:54;;;;;;;8.00;3.70;;;;;;;;;;5054656;28;20190;-43
2022/06/13 09:58:23;;;;;;;6.37;3.00;;;;;;;;;;5052249;28;20286;-44
2022/06/13 10:01:02;;;;;;;6.70;2.70;;;;;;;;;;5049347;28;20179;-44
2022/06/13 10:03:40;;;;;;;5.97;2.07;;;;;;;;;;5053929;28;20175;-43
2022/06/13 10:06:10;;;;;;;5.67;2.20;;;;;;;;;;5051318;28;20662;-43
2022/06/13 10:08:45;;;;;;;4.07;2.50;;;;;;;;;;5054898;28;20584;-43
2022/06/13 10:11:24;;;;;;;5.67;2.30;;;;;;;;;;5054569;28;20856;-43
2022/06/13 10:14:19;;;;;;;5.87;2.67;;;;;;;;;;5052889;28;20260;-43
2022/06/13 10:17:07;;;;;;;6.00;1.90;;;;;;;;;;5050014;28;20210;-42
2022/06/13 10:19:48;;;;;;;4.33;2.20;;;;;;;;;;5054503;28;20223;-41
2022/06/13 10:22:14;;;;;;;4.77;2.60;;;;;;;;;;5052346;28;20760;-42
2022/06/13 10:24:40;;;;;;;3.20;1.97;;;;;;;;;;5052538;28;20170;-41
2022/06/13 10:27:10;;;;;;;4.53;2.00;;;;;;;;;;5052921;28;20182;-42
2022/06/13 10:29:55;;;;;;;6.23;2.13;;;;;;;;;;5050325;28;20171;-41
2022/06/13 10:32:24;;;;;;;3.63;2.47;;;;;;;;;;5050428;28;20181;-42
2022/06/13 10:34:53;;;;;;;4.93;2.20;;;;;;;;;;5054224;28;20643;-41
2022/06/13 10:37:38;;;;;;;4.13;2.30;;;;;;;;;;5055234;28;20179;-42
2022/06/13 10:40:06;;;;;;;3.27;2.07;;;;;;;;;;5051130;28;20543;-42
2022/06/13 10:42:33;;;;;;;3.27;2.17;;;;;;;;;;5050097;28;20179;-42
2022/06/13 10:44:59;;;;;;;3.27;1.80;;;;;;;;;;5051517;28;20469;-44
2022/06/13 10:47:29;;;;;;;2.13;1.50;;;;;;;;;;5053257;28;20784;-42
2022/06/13 10:50:00;;;;;;;4.90;1.40;;;;;;;;;;5051977;28;20211;-42
2022/06/13 10:52:30;;;;;;;4.43;2.07;;;;;;;;;;5051162;28;20870;-42
2022/06/13 10:54:57;;;;;;;4.67;1.97;;;;;;;;;;5050234;28;20183;-43
2022/06/13 10:57:32;;;;;;;3.17;1.60;;;;;;;;;;5053221;28;20172;-42
2022/06/13 11:00:19;;;;;;;5.47;2.00;;;;;;;;;;5050964;28;20311;-41
2022/06/13 11:02:45;;;;;;;5.63;1.80;;;;;;;;;;5053022;28;20213;-42
2022/06/13 11:05:14;;;;;;;2.73;1.67;;;;;;;;;;5053487;28;20178;-42
2022/06/13 11:07:46;;;;;;;4.37;1.70;;;;;;;;;;5047422;28;20695;-42
2022/06/13 11:10:18;;;;;;;3.17;1.77;;;;;;;;;;5053520;28;20684;-42
2022/06/13 11:12:49;;;;;;;4.20;1.60;;;;;;;;;;5052994;28;20198;-43
2022/06/13 11:23:48;;;;;;;3.70;1.80;;;;;;;;;;5050835;28;20396;-42
2022/06/13 11:28:59;;;;;;;3.83;1.70;;;;;;;;;;5050391;28;20277;-42
2022/06/13 11:31:28;;;;;;;8.20;2.20;;;;;;;;;;5050019;28;20179;-42
2022/06/13 11:33:54;;;;;;;3.33;2.10;;;;;;;;;;5053978;28;20316;-42
2022/06/13 11:36:23;;;;;;;3.17;1.60;;;;;;;;;;5053712;28;20224;-41
2022/06/13 11:38:54;;;;;;;4.30;1.70;;;;;;;;;;5049087;28;20222;-42
2022/06/13 11:41:22;;;;;;;2.97;1.67;;;;;;;;;;5052259;28;21166;-43
2022/06/13 11:43:49;;;;;;;3.40;1.60;;;;;;;;;;5056058;28;20277;-43
2022/06/13 11:46:24;;;;;;;4.97;1.77;;;;;;;;;;5049432;28;20244;-43
2022/06/13 11:48:51;;;;;;;4.03;1.70;;;;;;;;;;5051032;28;20179;-41
2022/06/13 11:51:22;;;;;;;5.20;1.70;;;;;;;;;;5055794;28;20172;-42
2022/06/13 11:53:50;;;;;;;2.67;1.80;;;;;;;;;;5051886;28;20208;-43
2022/06/13 11:56:36;;;;;;;2.17;1.60;;;;;;;;;;5048073;28;20601;-42
2022/06/13 11:59:05;;;;;;;2.10;1.50;;;;;;;;;;5051468;28;20187;-42
2022/06/13 12:01:38;;;;;;;2.57;1.50;;;;;;;;;;5048687;28;20298;-41
2022/06/13 12:04:04;;;;;;;2.57;1.37;;;;;;;;;;5049313;28;20830;-42
2022/06/13 12:06:40;;;;;;;4.10;1.30;;;;;;;;;;5052798;28;20265;-42
2022/06/13 12:09:31;;;;;;;5.63;1.80;;;;;;;;;;5052992;28;20590;-42
2022/06/13 12:12:00;;;;;;;2.63;1.30;;;;;;;;;;5051807;28;20181;-42
2022/06/13 12:14:30;;;;;;;3.67;1.40;;;;;;;;;;5050803;28;20650;-42
2022/06/13 12:16:56;;;;;;;1.80;1.27;;;;;;;;;;5052098;28;20175;-41
2022/06/13 12:19:33;;;;;;;4.67;1.57;;;;;;;;;;5051690;28;20178;-40
2022/06/13 12:22:05;;;;;;;2.10;1.50;;;;;;;;;;5052906;28;20180;-42
2022/06/13 12:24:50;;;;;;;2.20;1.60;;;;;;;;;;5049094;28;20178;-41
2022/06/13 12:27:18;;;;;;;3.53;1.60;;;;;;;;;;5050802;28;20177;-42
2022/06/13 12:30:05;;;;;;;2.00;1.43;;;;;;;;;;5053952;28;20284;-42
2022/06/13 12:32:32;;;;;;;2.77;2.00;;;;;;;;;;5043004;28;20210;-42
2022/06/13 12:35:17;;;;;;;5.57;1.40;;;;;;;;;;5053338;28;20527;-42
2022/06/13 12:37:43;;;;;;;2.70;1.67;;;;;;;;;;5053846;28;20174;-42
2022/06/13 12:40:15;;;;;;;2.20;1.40;;;;;;;;;;5054112;28;20236;-42
2022/06/13 12:42:53;;;;;;;4.80;1.80;;;;;;;;;;5054736;28;20579;-41
2022/06/13 12:45:22;;;;;;;2.07;1.37;;;;;;;;;;5041239;28;20503;-42
2022/06/13 12:47:48;;;;;;;2.40;1.30;;;;;;;;;;5052140;28;20176;-42
2022/06/13 12:50:28;;;;;;;3.77;1.47;;;;;;;;;;5053069;28;20983;-42
2022/06/13 12:53:08;;;;;;;2.73;1.23;;;;;;;;;;5053220;28;20237;-41
2022/06/13 12:55:34;;;;;;;3.43;1.50;;;;;;;;;;5059336;28;20186;-42
2022/06/13 12:58:00;;;;;;;4.67;1.30;;;;;;;;;;5058863;28;20221;-42
2022/06/13 13:00:35;;;;;;;1.80;1.20;;;;;;;;;;5058104;28;20178;-42
2022/06/13 13:03:02;;;;;;;2.87;1.47;;;;;;;;;;5061388;28;20289;-42
2022/06/13 13:05:47;;;;;;;4.30;1.50;;;;;;;;;;5060956;28;20238;-42
2022/06/13 13:08:13;;;;;;;3.13;1.33;;;;;;;;;;5056516;28;20734;-42
2022/06/13 13:10:53;;;;;;;2.80;1.30;;;;;;;;;;5061278;28;20263;-42
2022/06/13 13:13:22;;;;;;;2.13;1.23;;;;;;;;;;5053715;28;21315;-42
2022/06/13 13:15:54;;;;;;;3.23;1.13;;;;;;;;;;5051959;28;20727;-42
2022/06/13 13:18:39;;;;;;;3.20;1.30;;;;;;;;;;5050050;28;20175;-42
2022/06/13 13:21:05;;;;;;;3.13;1.30;;;;;;;;;;5054703;28;20474;-42
2022/06/13 13:23:40;;;;;;;2.20;1.00;;;;;;;;;;5050849;28;20192;-42
2022/06/13 13:26:15;;;;;;;2.43;1.13;;;;;;;;;;5056299;28;20530;-42
2022/06/13 13:28:57;;;;;;;1.33;1.00;;;;;;;;;;5052225;28;20464;-42
2022/06/13 13:31:28;;;;;;;3.37;1.30;;;;;;;;;;5051151;28;20181;-42
2022/06/13 13:34:04;;;;;;;1.57;1.20;;;;;;;;;;5053306;28;20204;-42
2022/06/13 13:36:36;;;;;;;2.20;1.10;;;;;;;;;;5053290;28;20173;-42
2022/06/13 13:39:08;;;;;;;3.53;1.37;;;;;;;;;;5049207;28;20169;-42
2022/06/13 13:41:34;;;;;;;3.13;1.33;;;;;;;;;;5051645;28;20747;-41
2022/06/13 13:44:03;;;;;;;3.07;1.60;;;;;;;;;;5055769;28;20995;-42
2022/06/13 13:46:39;;;;;;;3.43;1.53;;;;;;;;;;5048942;28;20986;-42
2022/06/13 13:49:05;;;;;;;2.17;1.43;;;;;;;;;;5049223;28;20190;-42
2022/06/13 13:51:51;;;;;;;3.40;1.13;;;;;;;;;;5053982;28;20576;-42
2022/06/13 13:54:22;;;;;;;2.20;1.50;;;;;;;;;;5054134;28;20199;-42
2022/06/13 13:57:03;;;;;;;3.27;1.37;;;;;;;;;;5049773;28;20177;-43
2022/06/13 13:59:31;;;;;;;2.57;1.60;;;;;;;;;;5053280;28;20192;-42
2022/06/13 14:02:16;;;;;;;2.47;1.43;;;;;;;;;;5056291;28;20583;-42
2022/06/13 14:04:45;;;;;;;2.87;1.40;;;;;;;;;;5053711;28;20188;-42
2022/06/13 14:07:11;;;;;;;1.50;1.30;;;;;;;;;;5053134;28;20177;-42
2022/06/13 14:09:37;;;;;;;3.20;1.30;;;;;;;;;;5057469;28;20260;-43
2022/06/13 14:12:09;;;;;;;1.90;1.40;;;;;;;;;;5048872;28;20188;-43
2022/06/13 14:14:58;;;;;;;3.47;1.53;;;;;;;;;;5055462;28;20384;-43
2022/06/13 14:17:29;;;;;;;2.37;1.20;;;;;;;;;;5039774;28;20200;-43
2022/06/13 14:20:03;;;;;;;4.17;1.40;;;;;;;;;;5052563;28;20231;-43
2022/06/13 14:22:35;;;;;;;3.83;1.37;;;;;;;;;;5059309;28;20510;-43
2022/06/13 14:25:04;;;;;;;2.87;1.20;;;;;;;;;;5057285;28;20189;-43
2022/06/13 14:27:32;;;;;;;3.40;1.50;;;;;;;;;;5057561;28;20181;-43
2022/06/13 14:36:01;;;;;;;4.27;1.63;;;;;;;;;;5051130;28;20646;-43
2022/06/13 14:38:53;;;;;;;2.07;1.20;;;;;;;;;;5052453;28;20175;-43
2022/06/13 14:41:31;;;;;;;1.60;1.30;;;;;;;;;;5048115;28;20636;-43
2022/06/13 14:44:02;;;;;;;4.47;1.50;;;;;;;;;;5054920;28;20177;-44
2022/06/13 14:46:31;;;;;;;2.40;1.47;;;;;;;;;;5062410;28;20186;-43
2022/06/13 14:49:09;;;;;;;4.73;1.20;;;;;;;;;;5054094;28;20179;-44
2022/06/13 14:51:55;;;;;;;4.38;1.50;;;;;;;;;;5052468;28;20706;-41
2022/06/13 14:54:50;;;;;;;4.20;1.35;;;;;;;;;;5049842;28;20191;-43
2022/06/13 14:57:28;;;;;;;2.17;1.33;;;;;;;;;;5035202;28;20190;-43
2022/06/13 15:00:06;;;;;;;5.37;1.50;;;;;;;;;;5051474;28;20209;-43
2022/06/13 15:02:34;;;;;;;3.40;1.40;;;;;;;;;;5059674;28;20183;-43
2022/06/13 15:05:01;;;;;;;3.17;1.50;;;;;;;;;;5057807;28;20345;-43
2022/06/13 15:07:54;;;;;;;8.02;1.25;;;;;;;;;;5051905;28;20212;-43
2022/06/13 15:10:27;;;;;;;3.65;1.50;;;;;;;;;;5035324;28;20187;-43
2022/06/13 15:12:53;;;;;;;2.70;1.30;;;;;;;;;;5047366;28;20244;-43
2022/06/13 15:15:24;;;;;;;5.20;1.65;;;;;;;;;;5053412;28;20688;-43
2022/06/13 15:17:52;;;;;;;3.17;1.30;;;;;;;;;;5057181;28;20296;-43
2022/06/13 15:20:21;;;;;;;3.97;1.60;;;;;;;;;;5057726;28;20182;-43
2022/06/13 15:22:49;;;;;;;3.08;1.67;;;;;;;;;;5054729;28;20176;-43
2022/06/13 15:25:15;;;;;;;9.07;1.80;;;;;;;;;;5055087;28;20174;-43
2022/06/13 15:27:49;;;;;;;1.52;1.30;;;;;;;;;;5051704;28;20171;-43
2022/06/13 15:30:15;;;;;;;4.32;1.58;;;;;;;;;;5049401;28;20243;-43
2022/06/13 15:32:42;;;;;;;2.00;1.50;;;;;;;;;;5049222;28;20460;-43
2022/06/13 15:35:20;;;;;;;3.30;1.60;;;;;;;;;;5054064;28;20178;-43